Historyczne dane pomiarowe

Dodano dane terminowe – wersja testowa.

Dane z okresu 1951-2019

Wersja bazy: 1.34 [2019-03-16, lista zmian], aktualizacja planowana na 2019-04-15

Dane meteo z obszaru Polski uzyskane na podstawie danych udostępnionych przez Instytut Meteorologii i Gospodarki Wodnej – Państwowy Instytut Badawczy.

 

Wybierz Datę:    

       

TemperaturaWilgotnośćWiatrCiśnienieOpadyŚniegCzas trwania zjawisk
 Stacja t tx tn tng RH VA  wxwx mslp ppp RRR   cm mm wxwxwxwxwxwxwx
2019-06-13 20.4 27.8 17.4--- 7.0 2.3---- 6.9------------
2019-06-12 25.3 31.0 18.7--- 1.7 4.3---- 5.4------------
2019-06-11 22.4 29.8 15.1--- 3.3 4.7---- 0.0------------
2019-06-10 18.7 25.8 12.6--- 7.0 5.0---- 50.8------------
2019-06-09 17.1 23.7 10.4--- 3.7 2.3---- 0.0------------
2019-06-08 18.4 27.1 13.8--- 4.7 3.7---- 2.6------------
2019-06-07 19.1 23.5 15.4--- 4.7 2.7---- 0.0------------
2019-06-06 22.0 27.4 16.0--- 4.7 5.0---- 0.0------------
2019-06-05 23.5 28.6 15.7--- 2.7 5.0---- 0.0------------
2019-06-04 22.8 27.8 16.5--- 2.0 4.0---- 0.0------------
2019-06-03 20.2 28.2 9.2--- 0.7 3.3---- 0.0------------
2019-06-02 15.2 21.1 11.4--- 6.0 3.7---- 0.0------------
2019-06-01 16.1 23.3 9.4--- 5.0 2.3---- 4.5------------
2019-05-31 16.2 20.5 12.6--- 6.0 6.0---- 0.0------------
2019-05-30 11.9 18.3 3.0--- 3.3 2.0---- 0.0------------
2019-05-29 10.4 13.8 7.4--- 4.3 6.0---- 0.0------------
2019-05-28 11.3 14.3 10.1--- 8.0 3.3---- 4.6------------
2019-05-27 15.2 17.9 13.7--- 7.3 5.3---- 3.9------------
2019-05-26 12.6 16.2 8.6--- 8.0 5.7---- 0.0------------
2019-05-25 12.6 14.7 10.8--- 6.7 6.0---- 0.0------------
2019-05-24 13.6 18.7 8.3--- 7.0 2.3---- 0.0------------
2019-05-23 13.1 17.5 11.1--- 7.7 6.0---- 0.0------------
2019-05-22 16.9 21.0 11.9--- 1.3 2.0---- 0.0------------
2019-05-21 18.0 21.9 15.3--- 6.7 3.0---- 0.2------------
2019-05-20 17.6 23.3 12.2--- 6.7 3.3---- 15.8------------
2019-05-19 14.6 17.6 10.2--- 7.3 3.3---- 5.9------------
2019-05-18 14.9 18.3 10.8--- 5.7 1.3---- 13.5------------
2019-05-17 13.2 16.3 11.4--- 7.3 4.0---- 10.4------------
2019-05-16 10.5 13.3 7.4--- 7.7 5.7---- 14.4------------
2019-05-15 7.8 10.8 6.1--- 7.7 5.7---- 11.5------------
2019-05-14 6.8 9.4 4.5--- 5.3 5.7---- 1.6------------
2019-05-13 7.5 11.0 4.9--- 7.0 6.0---- 1.9------------
2019-05-12 8.2 11.4 4.9--- 7.3 2.3---- 0.0------------
2019-05-11 10.2 14.4 7.8--- 7.3 4.3---- 0.0------------
2019-05-10 11.6 17.6 8.5--- 7.0 2.3---- 4.4------------
2019-05-09 10.1 15.4 6.1--- 8.0 6.0---- 1.4------------
2019-05-08 8.2 13.8 -0.9--- 5.0 3.7---- 0.0------------
2019-05-07 7.5 11.5 3.5--- 4.3 5.3---- 0.0------------
2019-05-06 6.6 12.8 -1.3--- 5.0 2.3---- 0.0------------
2019-05-05 5.2 10.4 0.1--- 4.3 4.3---- 0.0------------
2019-05-04 6.1 10.3 2.5--- 6.7 4.3---- 0.0------------
2019-05-03 5.9 10.9 2.2--- 6.0 3.0---- 0.3------------
2019-05-02 8.4 10.1 7.3--- 8.0 8.3---- 3.0------------
2019-05-01 8.4 16.0 1.2--- 5.3 3.7---- 0.9------------
2019-04-30 9.7 16.3 1.8--- 2.7 3.3---- 0.0------------
2019-04-29 10.5 13.4 8.5--- 1.0 5.0---- 0.0------------
2019-04-28 9.8 11.9 8.6--- 8.0 5.3---- 1.0------------
2019-04-27 15.1 21.7 10.3--- 7.3 3.7---- 2.5------------
2019-04-26 17.3 24.5 9.6--- 5.0 3.0---- 0.0------------
2019-04-25 17.0 24.4 10.9--- 2.7 5.7---- 0.0------------
2019-04-24 14.5 19.9 9.0--- 4.0 8.0---- 0.0------------
2019-04-23 12.7 19.0 4.7--- 1.0 9.7---- 0.0------------
2019-04-22 9.5 16.1 0.3--- 2.3 4.0---- 0.0------------
2019-04-21 10.1 18.9 3.0--- 0.7 4.3---- 0.0------------
2019-04-20 9.4 17.0 0.1--- 4.7 3.7---- 0.0------------
2019-04-19 7.9 16.4 0.5--- 0.0 2.3---- 0.0------------
2019-04-18 8.7 17.3 1.2--- 0.3 3.0---- 0.0------------
2019-04-17 7.8 15.1 0.4--- 0.0 3.0---- 0.0------------
2019-04-16 4.7 9.6 -0.4--- 2.7 4.7---- 0.0------------
2019-04-15 3.9 8.7 -0.7--- 0.3 3.7---- 0.0------------
182.9 ms

 

Źródłem pochodzenia danych jest Instytut Meteorologii i Gospodarki Wodnej – Państwowy Instytut Badawczy. Dane Instytutu Meteorologii i Gospodarki Wodnej – Państwowego Instytutu Badawczego zostały przetworzone.

Dane źródłowe można odnaleźć na stronie https://dane.imgw.pl